Time;durP1;ratioP1;P1;durP2;ratioP2;P2;SDS_P1;SDS_P2;PMS_P1;PMS_P2;Temp;Humidity;BMP_temperature;BMP_pressure;BME280_temperature;BME280_humidity;BME280_pressure;Samples;Min_cycle;Max_cycle;Signal;HPM_P1;HPM_P2
2024/01/14 00:00:10;;;;;;;4.05;1.27;;;;;;;0.87;47.46;101260.63;4910767;29;20449;-83
2024/01/14 00:02:38;;;;;;;2.38;0.90;;;;;;;0.96;47.41;101267.88;4897946;29;20525;-84
2024/01/14 00:05:07;;;;;;;2.08;0.77;;;;;;;0.97;47.27;101261.72;4890543;29;20399;-85
2024/01/14 00:07:32;;;;;;;2.35;0.80;;;;;;;0.98;47.60;101255.59;4891695;29;20447;-86
2024/01/14 00:09:58;;;;;;;1.02;0.50;;;;;;;0.98;47.29;101249.53;4891573;29;20547;-86
2024/01/14 00:12:27;;;;;;;2.22;0.93;;;;;;;0.98;47.31;101242.53;4891461;29;20476;-86
2024/01/14 00:14:53;;;;;;;2.03;0.63;;;;;;;0.90;47.24;101252.59;4891813;29;20855;-86
2024/01/14 00:17:19;;;;;;;3.83;1.23;;;;;;;0.98;47.33;101250.34;4892195;29;20893;-84
2024/01/14 00:19:44;;;;;;;1.80;0.97;;;;;;;0.97;47.35;101253.88;4907732;29;20449;-86
2024/01/14 00:22:10;;;;;;;1.60;0.80;;;;;;;0.92;47.16;101255.97;4892566;29;20964;-86
2024/01/14 00:24:36;;;;;;;0.80;0.60;;;;;;;0.99;47.14;101252.06;4893225;29;20493;-86
2024/01/14 00:27:01;;;;;;;0.80;0.40;;;;;;;1.07;47.21;101260.22;4892879;29;20395;-87
2024/01/14 00:29:27;;;;;;;1.10;0.77;;;;;;;1.14;46.93;101248.47;4894289;29;20503;-87
2024/01/14 00:31:53;;;;;;;2.77;1.60;;;;;;;1.17;46.89;101252.69;4891207;29;20789;-87
2024/01/14 00:34:18;;;;;;;0.77;0.37;;;;;;;1.17;46.55;101251.81;4891510;29;20402;-86
2024/01/14 00:36:44;;;;;;;1.03;0.60;;;;;;;1.18;46.52;101250.91;4891903;29;20410;-87
2024/01/14 00:39:10;;;;;;;0.90;0.90;;;;;;;1.13;46.90;101241.59;4892941;29;20477;-85
2024/01/14 00:41:35;;;;;;;0.50;0.30;;;;;;;1.13;46.78;101248.56;4891802;29;20406;-86
2024/01/14 00:44:02;;;;;;;0.63;0.32;;;;;;;1.14;46.55;101247.63;4893167;29;20382;-86
2024/01/14 00:46:27;;;;;;;1.20;0.60;;;;;;;1.08;46.80;101235.81;4891436;29;20406;-87
2024/01/14 00:48:53;;;;;;;1.20;0.70;;;;;;;1.08;46.58;101238.41;4891637;29;20446;-86
2024/01/14 00:51:19;;;;;;;0.70;0.70;;;;;;;1.10;46.54;101233.94;4891956;29;20914;-87
2024/01/14 00:53:45;;;;;;;0.25;0.20;;;;;;;1.14;46.69;101229.38;4891436;29;20437;-86
2024/01/14 00:56:11;;;;;;;0.80;0.40;;;;;;;1.19;46.75;101224.69;4891969;29;20426;-86
2024/01/14 00:58:37;;;;;;;0.70;0.50;;;;;;;1.17;46.52;101231.78;4891164;29;20409;-86
2024/01/14 01:01:03;;;;;;;1.20;0.57;;;;;;;1.03;46.75;101227.44;4889357;29;20503;-87
2024/01/14 01:03:29;;;;;;;1.23;1.10;;;;;;;1.01;46.81;101218.84;4891132;29;20417;-86
2024/01/14 01:05:54;;;;;;;1.50;0.90;;;;;;;1.12;46.67;101221.63;4889304;29;20409;-87
2024/01/14 01:08:20;;;;;;;1.98;1.00;;;;;;;1.17;46.65;101212.66;4888657;29;20955;-85
2024/01/14 01:10:46;;;;;;;1.52;1.00;;;;;;;1.18;46.62;101206.50;4890321;29;20432;-86
2024/01/14 01:13:12;;;;;;;0.22;0.22;;;;;;;1.16;46.47;101192.72;4893146;29;20402;-86
2024/01/14 01:15:37;;;;;;;0.97;0.40;;;;;;;1.24;46.37;101198.28;4892996;29;20430;-85
2024/01/14 01:18:03;;;;;;;0.87;0.60;;;;;;;1.22;46.48;101189.69;4892000;29;20442;-84
2024/01/14 01:20:29;;;;;;;1.30;0.50;;;;;;;1.13;46.41;101184.16;4891844;29;20822;-86
2024/01/14 01:22:55;;;;;;;0.50;0.50;;;;;;;1.06;46.45;101175.03;4891307;29;20917;-86
2024/01/14 01:25:21;;;;;;;0.80;0.40;;;;;;;1.08;46.67;101175.75;4892196;29;20402;-86
2024/01/14 01:27:46;;;;;;;1.48;1.10;;;;;;;1.03;46.66;101172.59;4894213;29;20394;-85
2024/01/14 01:30:12;;;;;;;0.40;0.28;;;;;;;1.01;46.43;101158.81;4895623;29;20414;-85
2024/01/14 01:32:38;;;;;;;0.88;0.45;;;;;;;1.06;46.92;101150.66;4894939;29;20405;-86
2024/01/14 01:35:04;;;;;;;0.68;0.40;;;;;;;1.11;46.41;101157.28;4895908;29;20405;-85
2024/01/14 01:37:30;;;;;;;0.98;0.43;;;;;;;1.11;46.77;101152.03;4894823;29;20959;-84
2024/01/14 01:39:56;;;;;;;0.73;0.57;;;;;;;1.10;46.63;101155.59;4897039;29;20481;-85
2024/01/14 01:42:22;;;;;;;3.50;1.85;;;;;;;1.04;46.64;101139.50;4895437;29;20426;-83
2024/01/14 01:44:48;;;;;;;0.50;0.30;;;;;;;1.09;46.89;101145.25;4897276;29;20406;-84
2024/01/14 01:47:15;;;;;;;1.03;0.70;;;;;;;1.02;46.98;101136.97;4877521;29;20391;-84
2024/01/14 01:49:42;;;;;;;1.40;0.95;;;;;;;0.99;46.87;101118.06;4911135;29;20404;-85
2024/01/14 01:52:08;;;;;;;0.20;0.20;;;;;;;1.03;46.85;101117.78;4912391;29;20401;-84
2024/01/14 01:54:35;;;;;;;1.40;1.05;;;;;;;1.08;46.87;101112.25;4911109;29;20405;-85
2024/01/14 01:57:01;;;;;;;0.93;0.70;;;;;;;1.00;46.82;101117.13;4911907;29;20409;-84
2024/01/14 01:59:27;;;;;;;1.23;0.70;;;;;;;0.84;47.39;101118.09;4915887;29;20392;-84
2024/01/14 02:01:54;;;;;;;2.15;1.00;;;;;;;0.69;47.73;101113.84;4925035;29;20443;-83
2024/01/14 02:04:21;;;;;;;1.52;1.42;;;;;;;0.55;48.34;101112.09;4920208;29;20396;-83
2024/01/14 02:06:47;;;;;;;1.48;0.82;;;;;;;0.50;48.70;101104.56;4913079;29;20401;-83
2024/01/14 02:09:13;;;;;;;1.13;0.73;;;;;;;0.51;48.74;101113.22;4913437;29;20397;-83
2024/01/14 02:11:38;;;;;;;0.85;0.40;;;;;;;0.53;48.54;101111.38;4915230;29;20412;-84
2024/01/14 02:14:05;;;;;;;1.20;1.10;;;;;;;0.47;48.60;101103.91;4913683;29;20491;-87
2024/01/14 02:16:31;;;;;;;0.75;0.50;;;;;;;0.41;49.03;101112.94;4898228;29;20401;-84
2024/01/14 02:18:56;;;;;;;3.28;1.75;;;;;;;0.30;49.04;101100.56;4913549;29;20401;-84
2024/01/14 02:21:46;;;;;;;3.92;1.52;;;;;;;0.27;48.81;101098.16;4913918;29;20404;-85
2024/01/14 02:24:27;;;;;;;0.68;0.50;;;;;;;0.28;48.93;101102.44;4913858;29;20408;-86
2024/01/14 02:26:53;;;;;;;1.08;0.50;;;;;;;0.27;48.88;101098.16;4913191;29;20475;-85
2024/01/14 02:29:20;;;;;;;1.92;0.75;;;;;;;0.26;48.87;101101.69;4913085;29;20468;-85
2024/01/14 02:31:46;;;;;;;0.40;0.40;;;;;;;0.26;48.34;101088.66;4914711;29;20459;-84
2024/01/14 02:34:12;;;;;;;3.38;1.50;;;;;;;0.16;48.46;101092.75;4915515;29;20389;-86
2024/01/14 02:36:38;;;;;;;1.30;0.85;;;;;;;0.12;48.56;101092.09;4916173;29;20407;-85
2024/01/14 02:39:05;;;;;;;2.47;1.40;;;;;;;0.04;48.62;101081.31;4911855;29;20931;-86
2024/01/14 02:41:32;;;;;;;1.17;0.50;;;;;;;0.12;48.71;101080.84;4914167;29;20415;-87
2024/01/14 02:43:58;;;;;;;1.67;0.73;;;;;;;0.12;48.53;101086.88;4896868;29;20423;-86
2024/01/14 02:46:24;;;;;;;1.98;0.85;;;;;;;0.10;48.62;101091.34;4911766;29;20499;-86
2024/01/14 02:48:50;;;;;;;1.40;0.60;;;;;;;0.01;48.46;101071.06;4912056;29;20397;-87
2024/01/14 02:51:16;;;;;;;0.68;0.43;;;;;;;0.12;48.47;101078.22;4911068;29;20764;-86
2024/01/14 02:53:42;;;;;;;1.60;0.60;;;;;;;0.09;48.54;101068.84;4911632;29;20922;-87
2024/01/14 02:56:10;;;;;;;1.98;0.50;;;;;;;0.02;48.41;101057.13;4910838;29;21090;-86
2024/01/14 02:58:37;;;;;;;2.30;0.68;;;;;;;0.09;48.23;101058.41;4912153;29;20448;-86
2024/01/14 03:01:02;;;;;;;1.38;0.80;;;;;;;0.28;48.02;101060.72;4912017;29;20481;-86
2024/01/14 03:03:28;;;;;;;1.00;0.50;;;;;;;0.44;47.87;101063.22;4913087;29;20412;-86
2024/01/14 03:05:54;;;;;;;1.30;0.40;;;;;;;0.53;47.45;101057.41;4912499;29;20915;-87
2024/01/14 03:08:20;;;;;;;1.33;0.50;;;;;;;0.62;47.46;101048.19;4912267;29;20588;-87
2024/01/14 03:10:46;;;;;;;1.20;0.70;;;;;;;0.71;47.09;101058.03;4912547;29;20920;-87
2024/01/14 03:13:16;;;;;;;0.60;0.30;;;;;;;0.69;47.41;101054.69;4912046;29;20397;-87
2024/01/14 03:15:45;;;;;;;0.80;0.60;;;;;;;0.75;47.33;101048.22;4911925;29;20409;-88
2024/01/14 03:18:15;;;;;;;0.63;0.50;;;;;;;0.70;47.20;101042.47;4913494;29;20400;-86
2024/01/14 03:20:42;;;;;;;0.77;0.30;;;;;;;0.69;47.15;101049.47;4911734;29;20419;-87
2024/01/14 03:23:08;;;;;;;0.95;0.75;;;;;;;0.65;47.08;101040.16;4911656;29;20459;-86
2024/01/14 03:25:36;;;;;;;0.40;0.30;;;;;;;0.58;47.30;101033.66;4912691;29;20428;-86
2024/01/14 03:28:05;;;;;;;1.70;1.60;;;;;;;0.66;47.14;101041.00;4911488;29;20487;-85
2024/01/14 03:30:30;;;;;;;1.00;0.47;;;;;;;0.64;47.07;101040.25;4912190;29;20930;-85
2024/01/14 03:32:56;;;;;;;0.77;0.45;;;;;;;0.53;47.30;101040.94;4911378;29;20406;-86
2024/01/14 03:35:21;;;;;;;0.50;0.35;;;;;;;0.49;47.12;101049.91;4911272;29;20821;-84
2024/01/14 03:37:47;;;;;;;1.00;0.60;;;;;;;0.46;47.04;101040.47;4912652;29;20401;-85
2024/01/14 03:40:13;;;;;;;0.60;0.37;;;;;;;0.50;47.26;101035.91;4915245;29;20392;-84
2024/01/14 03:42:38;;;;;;;0.67;0.60;;;;;;;0.64;47.06;101024.59;4915129;29;20861;-85
2024/01/14 03:45:05;;;;;;;0.97;0.57;;;;;;;0.80;46.69;101030.50;4916141;29;20963;-85
2024/01/14 03:47:30;;;;;;;0.57;0.30;;;;;;;0.83;46.87;101025.09;4911261;29;20433;-85
2024/01/14 03:50:14;;;;;;;0.90;0.40;;;;;;;0.85;46.64;101012.78;4910434;29;20488;-85
2024/01/14 03:52:40;;;;;;;0.68;0.47;;;;;;;0.74;46.71;101008.25;4912349;29;20415;-86
2024/01/14 03:55:06;;;;;;;1.23;0.60;;;;;;;0.65;46.76;101000.16;4910815;29;20393;-85
2024/01/14 03:57:34;;;;;;;0.50;0.40;;;;;;;0.62;46.74;101010.81;4911494;29;20405;-85
2024/01/14 03:59:59;;;;;;;0.75;0.70;;;;;;;0.57;47.06;101018.94;4912570;29;20401;-85
2024/01/14 04:02:25;;;;;;;0.90;0.55;;;;;;;0.59;47.01;101014.44;4928598;29;20443;-83
2024/01/14 04:04:52;;;;;;;1.50;0.93;;;;;;;0.74;46.82;101028.31;4915684;29;20408;-85
2024/01/14 04:07:18;;;;;;;0.75;0.40;;;;;;;0.70;46.76;101019.84;4910608;29;20420;-85
2024/01/14 04:09:43;;;;;;;1.53;0.83;;;;;;;0.80;46.55;101025.28;4912935;29;20481;-86
2024/01/14 04:12:09;;;;;;;8.20;1.40;;;;;;;0.83;46.40;101005.97;4911487;29;20464;-86
2024/01/14 04:14:34;;;;;;;0.70;0.50;;;;;;;0.82;46.43;101009.53;4912805;29;20414;-85
2024/01/14 04:17:00;;;;;;;0.60;0.50;;;;;;;0.85;46.18;100997.13;4913137;29;20400;-85
2024/01/14 04:19:26;;;;;;;1.00;0.95;;;;;;;0.86;46.65;101005.78;4911609;29;20402;-85
2024/01/14 04:21:52;;;;;;;0.50;0.45;;;;;;;0.83;46.29;100991.16;4911153;29;20405;-85
2024/01/14 04:24:17;;;;;;;0.23;0.23;;;;;;;0.80;46.30;100982.72;4912202;29;20404;-89
2024/01/14 04:26:43;;;;;;;1.00;0.57;;;;;;;0.77;46.54;100983.72;4911415;29;20495;-87
2024/01/14 04:29:09;;;;;;;0.35;0.30;;;;;;;0.81;46.61;100992.19;4889866;29;20794;-83
2024/01/14 04:31:34;;;;;;;1.17;1.10;;;;;;;0.70;46.72;100979.84;4890688;29;20823;-83
2024/01/14 04:34:03;;;;;;;1.30;0.63;;;;;;;0.67;46.85;100978.28;4891562;29;20836;-85
2024/01/14 04:36:29;;;;;;;1.00;0.80;;;;;;;0.62;47.25;100982.97;4896226;29;20406;-84
2024/01/14 04:38:55;;;;;;;0.90;0.43;;;;;;;0.53;47.15;100975.72;4900397;29;20466;-86
2024/01/14 04:41:21;;;;;;;1.80;1.00;;;;;;;0.53;47.48;100987.00;4895245;29;20473;-87
2024/01/14 04:43:46;;;;;;;0.80;0.47;;;;;;;0.55;47.44;100985.13;4889188;29;21080;-86
2024/01/14 04:46:12;;;;;;;2.50;1.30;;;;;;;0.54;47.52;100995.63;4889312;29;20815;-86
2024/01/14 04:48:37;;;;;;;0.77;0.50;;;;;;;0.49;47.44;100989.91;4889367;29;20463;-86
2024/01/14 04:51:03;;;;;;;1.10;0.73;;;;;;;0.42;47.60;100978.19;4888835;29;20416;-86
2024/01/14 04:53:29;;;;;;;1.25;1.05;;;;;;;0.46;47.46;100987.50;4889664;29;20774;-86
2024/01/14 04:55:54;;;;;;;0.43;0.30;;;;;;;0.45;47.58;100976.22;4893677;29;20474;-85
2024/01/14 04:58:20;;;;;;;0.40;0.40;;;;;;;0.45;47.57;100972.75;4895377;29;20465;-87
2024/01/14 05:00:58;;;;;;;1.30;0.70;;;;;;;0.38;48.14;100975.78;4908489;23;21014;-85
2024/01/14 05:03:24;;;;;;;1.08;0.60;;;;;;;0.33;48.01;100970.00;4912875;29;20507;-85
2024/01/14 05:05:49;;;;;;;0.75;0.60;;;;;;;0.27;47.83;100973.03;4909991;29;20406;-84
2024/01/14 05:08:15;;;;;;;0.90;0.50;;;;;;;0.32;47.96;100978.75;4905500;29;20461;-86
2024/01/14 05:10:43;;;;;;;1.00;0.70;;;;;;;0.28;47.58;100971.25;4903035;29;20438;-84
2024/01/14 05:13:08;;;;;;;0.82;0.45;;;;;;;0.26;47.72;100976.53;4898821;29;20399;-87
2024/01/14 05:15:36;;;;;;;1.40;1.27;;;;;;;0.25;47.97;100964.44;4903810;29;20402;-87
2024/01/14 05:18:02;;;;;;;0.90;0.40;;;;;;;0.19;47.77;100965.66;4908468;29;20411;-86
2024/01/14 05:20:28;;;;;;;0.77;0.40;;;;;;;0.21;48.03;100969.94;4906132;29;20407;-86
2024/01/14 05:22:56;;;;;;;1.05;0.70;;;;;;;0.22;48.09;100976.81;4900188;29;20785;-86
2024/01/14 05:25:22;;;;;;;0.50;0.40;;;;;;;0.14;48.10;100967.72;4904329;29;20404;-87
2024/01/14 05:27:48;;;;;;;0.40;0.40;;;;;;;0.12;48.29;100955.72;4905259;29;20404;-86
2024/01/14 05:30:16;;;;;;;0.30;0.20;;;;;;;0.06;48.39;100956.94;4911255;29;20407;-86
2024/01/14 05:32:49;;;;;;;1.38;0.60;;;;;;;0.05;48.40;100950.03;4906513;29;20404;-87
2024/01/14 05:35:18;;;;;;;0.77;0.35;;;;;;;0.03;48.32;100953.69;4903627;29;20954;-86
2024/01/14 05:37:43;;;;;;;1.73;0.70;;;;;;;-0.04;48.46;100953.22;4904781;29;20444;-87
2024/01/14 05:40:12;;;;;;;2.13;0.80;;;;;;;-0.04;48.56;100959.31;4908164;29;20933;-85
2024/01/14 05:42:43;;;;;;;2.28;0.77;;;;;;;-0.02;48.45;100951.38;4901641;29;20480;-86
2024/01/14 05:45:12;;;;;;;1.20;1.10;;;;;;;-0.11;48.58;100938.91;4899318;29;20437;-86
2024/01/14 05:47:38;;;;;;;1.08;0.88;;;;;;;-0.07;48.33;100943.03;4906920;29;20400;-86
2024/01/14 05:50:09;;;;;;;1.38;0.40;;;;;;;-0.06;48.40;100950.72;4907682;29;20400;-85
2024/01/14 05:52:35;;;;;;;0.75;0.40;;;;;;;0.00;48.38;100949.53;4901715;29;20519;-86
2024/01/14 05:55:00;;;;;;;0.55;0.47;;;;;;;0.01;48.35;100953.78;4907082;29;20514;-86
2024/01/14 05:57:27;;;;;;;0.75;0.55;;;;;;;0.01;48.53;100956.41;4909277;29;20494;-86
2024/01/14 05:59:52;;;;;;;3.38;1.90;;;;;;;-0.08;48.35;100947.38;4921324;29;20479;-86
2024/01/14 06:02:21;;;;;;;0.70;0.40;;;;;;;-0.01;48.58;100947.84;4910300;29;20902;-86
2024/01/14 06:04:46;;;;;;;0.40;0.40;;;;;;;-0.04;48.35;100943.66;4911886;29;20451;-86
2024/01/14 06:07:12;;;;;;;0.63;0.30;;;;;;;-0.04;48.43;100950.63;4907945;29;20454;-86
2024/01/14 06:09:38;;;;;;;1.03;0.50;;;;;;;-0.06;48.59;100948.13;4903197;29;20461;-83
2024/01/14 06:12:03;;;;;;;0.97;0.57;;;;;;;-0.05;48.67;100947.19;4904405;29;20462;-86
2024/01/14 06:14:29;;;;;;;0.50;0.47;;;;;;;-0.10;48.66;100941.44;4907330;29;20454;-86
2024/01/14 06:16:54;;;;;;;1.07;0.47;;;;;;;-0.10;48.78;100940.59;4914596;29;20408;-85
2024/01/14 06:19:20;;;;;;;1.07;0.87;;;;;;;-0.05;48.65;100928.94;4913199;29;20394;-85
2024/01/14 06:21:46;;;;;;;0.60;0.60;;;;;;;-0.07;48.80;100928.22;4920496;29;20400;-86
2024/01/14 06:24:13;;;;;;;1.03;1.00;;;;;;;-0.09;48.72;100930.09;4903189;29;20770;-86
2024/01/14 06:26:41;;;;;;;0.30;0.30;;;;;;;-0.02;48.72;100938.34;4902107;29;20991;-86
2024/01/14 06:29:09;;;;;;;0.70;0.43;;;;;;;0.01;48.70;100942.53;4920809;29;20485;-84
2024/01/14 06:31:34;;;;;;;0.40;0.40;;;;;;;0.01;48.83;100938.16;4924207;29;20431;-86
2024/01/14 06:34:03;;;;;;;0.68;0.50;;;;;;;-0.10;49.05;100931.00;4912618;29;20447;-86
2024/01/14 06:36:32;;;;;;;0.73;0.68;;;;;;;-0.16;49.40;100933.16;4910571;29;20408;-85
2024/01/14 06:39:00;;;;;;;0.90;0.57;;;;;;;-0.16;49.39;100936.59;4910776;29;20845;-85
2024/01/14 06:41:28;;;;;;;0.35;0.35;;;;;;;-0.14;49.31;100934.75;4900769;29;20910;-87
2024/01/14 06:43:56;;;;;;;0.60;0.50;;;;;;;-0.11;49.48;100929.34;4902552;29;20424;-85
2024/01/14 06:46:22;;;;;;;0.50;0.40;;;;;;;-0.08;49.17;100929.13;4909790;29;21024;-86
2024/01/14 06:48:48;;;;;;;1.08;1.00;;;;;;;-0.18;49.69;100935.00;4908866;29;20526;-85
2024/01/14 06:51:14;;;;;;;0.57;0.47;;;;;;;-0.30;49.48;100944.44;4913639;29;20774;-86
2024/01/14 06:53:40;;;;;;;0.37;0.37;;;;;;;-0.33;50.11;100950.66;4908241;29;20485;-86
2024/01/14 06:56:08;;;;;;;0.77;0.77;;;;;;;-0.20;49.84;100941.19;4906244;29;20536;-84
2024/01/14 06:58:36;;;;;;;0.45;0.30;;;;;;;-0.03;49.23;100936.69;4909504;29;20412;-85
2024/01/14 07:01:03;;;;;;;1.05;0.80;;;;;;;0.11;49.23;100927.97;4894088;29;20419;-86
2024/01/14 07:03:32;;;;;;;0.40;0.40;;;;;;;0.16;49.06;100926.78;4900609;29;20417;-86
2024/01/14 07:05:57;;;;;;;1.15;1.00;;;;;;;0.19;49.25;100923.94;4912104;29;20415;-86
2024/01/14 07:08:24;;;;;;;0.25;0.25;;;;;;;0.21;49.41;100915.19;4927586;29;20408;-86
2024/01/14 07:10:50;;;;;;;0.40;0.40;;;;;;;0.21;48.99;100903.00;4911917;29;20931;-87
2024/01/14 07:13:17;;;;;;;0.93;0.87;;;;;;;0.29;49.23;100919.00;4911567;29;20389;-86
2024/01/14 07:15:43;;;;;;;0.73;0.73;;;;;;;0.33;49.35;100927.47;4911907;29;20398;-87
2024/01/14 07:18:12;;;;;;;0.20;0.20;;;;;;;0.40;48.88;100913.09;4920822;29;20426;-87
2024/01/14 07:20:40;;;;;;;0.57;0.50;;;;;;;0.42;49.10;100916.44;4914854;29;20404;-84
2024/01/14 07:23:08;;;;;;;0.60;0.60;;;;;;;0.43;49.29;100907.66;4912839;29;20487;-85
2024/01/14 07:25:36;;;;;;;0.88;0.70;;;;;;;0.50;49.33;100908.94;4903550;29;20932;-84
2024/01/14 07:28:02;;;;;;;0.40;0.30;;;;;;;0.53;49.25;100907.91;4903955;29;20889;-84
2024/01/14 07:30:28;;;;;;;0.25;0.22;;;;;;;0.63;49.25;100910.72;4911240;29;20431;-85
2024/01/14 07:32:53;;;;;;;0.50;0.33;;;;;;;0.76;49.27;100916.84;4907091;29;20448;-86
2024/01/14 07:35:19;;;;;;;1.00;0.90;;;;;;;0.89;49.07;100907.25;4890693;29;20794;-84
2024/01/14 07:37:47;;;;;;;0.50;0.37;;;;;;;0.93;48.91;100906.09;4923185;29;20419;-85
2024/01/14 07:40:16;;;;;;;0.55;0.50;;;;;;;0.87;49.32;100900.47;4909794;29;20405;-85
2024/01/14 07:42:43;;;;;;;0.43;0.40;;;;;;;0.76;49.86;100893.34;4908517;29;20455;-85
2024/01/14 07:45:12;;;;;;;0.80;0.80;;;;;;;0.72;50.13;100882.28;4896647;29;20407;-85
2024/01/14 07:47:39;;;;;;;0.40;0.40;;;;;;;0.84;49.96;100890.22;4910122;29;20419;-85
2024/01/14 07:50:05;;;;;;;0.80;0.80;;;;;;;0.93;49.99;100890.44;4909328;29;20404;-86
2024/01/14 07:52:30;;;;;;;1.48;1.38;;;;;;;1.12;49.84;100894.44;4896009;29;20415;-86
2024/01/14 07:55:00;;;;;;;1.70;0.60;;;;;;;1.30;49.47;100900.16;4894116;29;20814;-87
2024/01/14 07:57:25;;;;;;;1.40;0.70;;;;;;;1.40;49.41;100898.56;4903362;29;20410;-86
2024/01/14 07:59:51;;;;;;;0.77;0.60;;;;;;;1.51;49.35;100903.06;4908874;29;20431;-85
2024/01/14 08:02:19;;;;;;;0.88;0.60;;;;;;;1.64;49.18;100893.44;4907883;29;20416;-85
2024/01/14 08:04:47;;;;;;;2.63;0.85;;;;;;;1.83;49.24;100895.56;4902845;29;20405;-86
2024/01/14 08:07:13;;;;;;;0.98;0.65;;;;;;;2.01;48.78;100900.44;4910268;29;21055;-86
2024/01/14 08:09:39;;;;;;;0.75;0.73;;;;;;;2.10;48.89;100905.00;4922987;29;20408;-86
2024/01/14 08:12:08;;;;;;;0.68;0.68;;;;;;;2.17;48.75;100906.22;4909907;29;20558;-86
2024/01/14 08:14:33;;;;;;;0.80;0.80;;;;;;;2.26;48.84;100907.34;4895760;29;20417;-86
2024/01/14 08:16:59;;;;;;;0.87;0.43;;;;;;;2.40;48.72;100909.78;4905990;29;20420;-85
2024/01/14 08:19:25;;;;;;;0.68;0.43;;;;;;;2.55;48.63;100901.75;4900061;29;20545;-84
2024/01/14 08:21:50;;;;;;;1.45;0.57;;;;;;;2.68;48.50;100894.66;4911201;29;20416;-84
2024/01/14 08:24:18;;;;;;;0.90;0.68;;;;;;;2.72;48.20;100897.88;4900698;29;20402;-86
2024/01/14 08:26:47;;;;;;;1.00;0.73;;;;;;;2.75;48.35;100889.81;4908672;29;20416;-85
2024/01/14 08:29:17;;;;;;;0.75;0.50;;;;;;;2.82;48.30;100894.47;4924969;29;20476;-84
2024/01/14 08:31:43;;;;;;;1.08;0.68;;;;;;;2.88;48.06;100874.84;4916422;29;20409;-84
2024/01/14 08:34:08;;;;;;;0.70;0.70;;;;;;;3.06;47.98;100877.84;4915925;29;20414;-84
2024/01/14 08:36:36;;;;;;;0.40;0.40;;;;;;;3.13;47.97;100883.44;4911460;29;20488;-83
2024/01/14 08:39:02;;;;;;;1.00;0.90;;;;;;;3.20;47.64;100892.50;4908207;29;20787;-84
2024/01/14 08:41:28;;;;;;;0.70;0.70;;;;;;;3.20;47.65;100903.81;4908139;29;20439;-84
2024/01/14 08:43:56;;;;;;;0.45;0.30;;;;;;;3.15;47.38;100897.25;4907205;29;21048;-84
2024/01/14 08:46:22;;;;;;;0.70;0.50;;;;;;;3.27;47.37;100890.25;4907035;29;20441;-84
2024/01/14 08:48:50;;;;;;;0.60;0.60;;;;;;;3.29;47.06;100890.97;4907067;29;20390;-84
2024/01/14 08:51:25;;;;;;;3.20;1.20;;;;;;;3.32;46.88;100893.38;4909771;29;20774;-84
2024/01/14 08:53:58;;;;;;;1.20;0.73;;;;;;;3.50;46.89;100897.16;4912878;29;20772;-85
2024/01/14 08:56:24;;;;;;;0.63;0.63;;;;;;;3.64;46.73;100901.34;4907325;29;20496;-84
2024/01/14 08:58:49;;;;;;;1.37;1.27;;;;;;;3.72;46.48;100891.06;4912986;29;20492;-84
2024/01/14 09:01:17;;;;;;;0.70;0.70;;;;;;;3.70;46.65;100885.13;4912164;29;20416;-85
2024/01/14 09:03:43;;;;;;;0.80;0.80;;;;;;;3.47;46.95;100881.69;4912952;29;21120;-85
2024/01/14 09:06:09;;;;;;;1.52;1.42;;;;;;;3.34;47.32;100894.06;4910984;29;20392;-84
2024/01/14 09:08:39;;;;;;;0.80;0.80;;;;;;;3.37;47.17;100899.09;4910281;29;20405;-85
2024/01/14 09:11:10;;;;;;;2.10;1.67;;;;;;;3.30;47.86;100884.78;4910378;29;20834;-85
2024/01/14 09:13:35;;;;;;;1.38;1.27;;;;;;;3.46;48.14;100885.28;4909730;29;20404;-85
2024/01/14 09:16:02;;;;;;;2.67;2.17;;;;;;;3.58;48.15;100888.69;4908997;29;20398;-85
2024/01/14 09:18:27;;;;;;;1.57;1.17;;;;;;;3.75;48.28;100876.91;4909602;29;20475;-85
2024/01/14 09:20:53;;;;;;;1.07;0.73;;;;;;;3.81;47.73;100860.66;4901515;29;20477;-84
2024/01/14 09:23:19;;;;;;;0.70;0.70;;;;;;;4.00;47.92;100850.38;4908333;29;20429;-83
2024/01/14 09:25:45;;;;;;;0.70;0.50;;;;;;;4.10;47.51;100844.38;4903586;29;20420;-84
2024/01/14 09:28:14;;;;;;;3.10;1.30;;;;;;;4.31;47.27;100847.06;4910391;29;20395;-87
2024/01/14 09:30:42;;;;;;;0.70;0.70;;;;;;;4.48;47.44;100848.28;4915201;29;20402;-84
2024/01/14 09:33:07;;;;;;;1.08;1.00;;;;;;;4.70;46.82;100842.06;4908186;29;20397;-85
2024/01/14 09:35:33;;;;;;;1.30;0.82;;;;;;;4.64;46.66;100821.56;4904173;29;20921;-84
2024/01/14 09:38:02;;;;;;;1.15;0.68;;;;;;;4.71;46.57;100831.44;4895252;29;21777;-83
2024/01/14 09:40:34;;;;;;;0.90;0.73;;;;;;;4.76;45.90;100833.69;4902059;29;20406;-82
2024/01/14 09:43:04;;;;;;;0.65;0.65;;;;;;;4.83;46.55;100826.13;4898779;29;20421;-83
2024/01/14 09:45:36;;;;;;;0.93;0.80;;;;;;;5.02;46.33;100815.69;4896695;29;20903;-83
2024/01/14 09:48:02;;;;;;;0.40;0.40;;;;;;;5.15;46.19;100807.63;4909499;29;21001;-84
2024/01/14 09:50:33;;;;;;;0.40;0.40;;;;;;;5.27;46.06;100806.53;4904570;29;20408;-84
2024/01/14 09:53:00;;;;;;;0.77;0.70;;;;;;;5.43;46.11;100813.91;4903382;29;20413;-84
2024/01/14 09:55:26;;;;;;;1.00;0.70;;;;;;;5.58;45.98;100805.66;4912745;29;20411;-84
2024/01/14 09:58:01;;;;;;;0.30;0.30;;;;;;;5.68;45.63;100801.25;4900250;29;20414;-84
2024/01/14 10:00:29;;;;;;;3.55;0.70;;;;;;;5.78;45.33;100798.63;4910980;29;20431;-84
2024/01/14 10:02:56;;;;;;;2.33;1.75;;;;;;;5.77;45.39;100795.16;4902097;29;20425;-84
2024/01/14 10:05:22;;;;;;;2.00;1.80;;;;;;;5.87;45.41;100782.00;4911897;29;20546;-84
2024/01/14 10:08:03;;;;;;;2.45;1.27;;;;;;;6.12;45.42;100780.66;4904848;29;20397;-83
2024/01/14 10:10:31;;;;;;;0.95;0.77;;;;;;;6.16;45.03;100783.84;4896053;29;20413;-83
2024/01/14 10:12:57;;;;;;;1.15;1.00;;;;;;;6.05;44.76;100785.66;4906224;29;20391;-83
2024/01/14 10:15:22;;;;;;;1.42;0.98;;;;;;;6.09;45.07;100789.69;4898339;29;21207;-83
2024/01/14 10:17:48;;;;;;;2.57;1.93;;;;;;;6.01;44.33;100783.44;4905360;29;20503;-86
2024/01/14 10:20:16;;;;;;;1.80;1.70;;;;;;;6.05;44.69;100780.41;4903134;29;20411;-86
2024/01/14 10:22:45;;;;;;;0.98;0.90;;;;;;;6.20;44.44;100780.81;4902630;29;20412;-88
2024/01/14 10:25:11;;;;;;;1.10;0.60;;;;;;;6.37;44.47;100781.88;4901948;29;20400;-88
2024/01/14 10:27:39;;;;;;;1.43;0.97;;;;;;;6.46;44.44;100780.22;4908429;29;20406;-88
2024/01/14 10:30:10;;;;;;;1.85;1.50;;;;;;;6.42;44.09;100770.94;4925810;29;20487;-88
2024/01/14 10:32:39;;;;;;;3.85;1.60;;;;;;;6.48;43.94;100770.38;4918390;29;20414;-87
2024/01/14 10:35:14;;;;;;;3.13;1.65;;;;;;;6.65;44.06;100769.63;4914207;29;20398;-89
2024/01/14 10:37:40;;;;;;;2.08;1.50;;;;;;;6.76;43.84;100779.19;4925688;29;20439;-89
2024/01/14 10:40:35;;;;;;;5.47;2.50;;;;;;;6.77;43.49;100772.94;4906174;29;20619;-88
2024/01/14 10:43:28;;;;;;;;;;;;;;;;;;;;;
2024/01/14 10:45:57;;;;;;;0.85;0.85;;;;;;;6.96;43.39;100777.31;4896914;29;20413;-83
2024/01/14 10:48:27;;;;;;;1.27;0.73;;;;;;;6.99;43.57;100760.38;4897206;29;20826;-83
2024/01/14 10:51:06;;;;;;;6.82;2.20;;;;;;;7.07;44.09;100761.28;4903680;29;20398;-83
2024/01/14 10:54:13;;;;;;;2.67;1.50;;;;;;;7.17;43.66;100763.06;4905945;29;20908;-85
2024/01/14 10:56:42;;;;;;;2.50;2.08;;;;;;;7.10;43.51;100757.56;4882952;29;20406;-82
2024/01/14 10:59:12;;;;;;;3.73;2.40;;;;;;;7.31;43.74;100757.31;4911481;29;20409;-84
2024/01/14 11:01:53;;;;;;;2.03;0.88;;;;;;;7.48;43.81;100763.59;4922071;29;20420;-82
2024/01/14 11:04:19;;;;;;;1.30;0.98;;;;;;;7.54;44.30;100755.06;4905784;29;20451;-87
2024/01/14 11:06:55;;;;;;;0.80;0.80;;;;;;;7.63;44.58;100748.06;4914625;29;20484;-87
2024/01/14 11:09:22;;;;;;;2.13;1.38;;;;;;;7.69;45.70;100728.16;4914197;29;20396;-86
2024/01/14 11:11:57;;;;;;;1.23;0.95;;;;;;;7.84;44.63;100738.03;4912956;29;20923;-87
2024/01/14 11:14:41;;;;;;;1.27;0.90;;;;;;;7.90;44.59;100736.59;4911578;29;20393;-88
2024/01/14 11:17:20;;;;;;;1.58;0.90;;;;;;;7.88;43.86;100733.28;4909418;29;20408;-86
2024/01/14 11:19:50;;;;;;;0.80;0.80;;;;;;;7.97;42.00;100721.00;4913481;29;20404;-84
2024/01/14 11:22:21;;;;;;;0.43;0.40;;;;;;;8.00;40.17;100718.88;4913506;29;20951;-88
2024/01/14 11:24:49;;;;;;;2.05;0.82;;;;;;;8.07;40.04;100710.34;4899619;29;20752;-90
2024/01/14 11:27:19;;;;;;;1.50;1.10;;;;;;;8.07;37.87;100718.25;4915593;29;20872;-87
2024/01/14 11:29:53;;;;;;;1.70;1.00;;;;;;;8.18;37.69;100704.81;4896207;29;20407;-87
2024/01/14 11:32:26;;;;;;;3.65;1.15;;;;;;;8.38;38.58;100718.66;4913360;29;20428;-87
2024/01/14 11:34:55;;;;;;;1.85;1.25;;;;;;;8.45;39.43;100719.72;4912964;29;20400;-88